createdAt,value
2022-08-05T00:00:24.053Z,100282.60
2022-08-05T00:03:15.886Z,100282.32
2022-08-05T00:06:05.196Z,100280.23
2022-08-05T00:08:39.074Z,100282.98
2022-08-05T00:11:20.592Z,100279.71
2022-08-05T00:14:02.206Z,100281.92
2022-08-05T00:16:36.020Z,100281.81
2022-08-05T00:19:06.733Z,100277.00
2022-08-05T00:21:37.839Z,100273.66
2022-08-05T00:24:10.971Z,100270.70
2022-08-05T00:26:50.798Z,100269.81
2022-08-05T00:29:25.463Z,100261.91
2022-08-05T00:32:12.724Z,100261.86
2022-08-05T00:35:04.446Z,100259.23
2022-08-05T00:37:53.604Z,100260.83
2022-08-05T00:40:29.281Z,100257.30
2022-08-05T00:44:14.662Z,100257.14
2022-08-05T00:46:54.308Z,100258.63
2022-08-05T00:49:44.725Z,100256.04
2022-08-05T00:52:28.663Z,100261.72
2022-08-05T00:55:01.917Z,100260.22
2022-08-05T00:57:55.451Z,100264.89
2022-08-05T01:00:25.867Z,100266.41
2022-08-05T01:02:57.866Z,100262.85
2022-08-05T01:05:29.337Z,100260.35
2022-08-05T01:08:41.504Z,100259.48
2022-08-05T01:11:01.118Z,100259.88
2022-08-05T01:14:00.062Z,100252.36
2022-08-05T01:16:53.871Z,100255.39
2022-08-05T01:20:01.292Z,100249.44
2022-08-05T01:23:14.930Z,100251.66
2022-08-05T01:26:53.777Z,100250.19
2022-08-05T01:29:52.639Z,100252.36
2022-08-05T01:32:33.286Z,100248.22
2022-08-05T01:35:51.085Z,100249.52
2022-08-05T01:38:24.737Z,100249.32
2022-08-05T01:41:02.377Z,100247.38
2022-08-05T01:44:25.186Z,100246.27
2022-08-05T01:47:12.663Z,100245.50
2022-08-05T01:50:01.463Z,100248.98
2022-08-05T01:52:38.628Z,100244.18
2022-08-05T01:55:13.085Z,100243.50
2022-08-05T01:58:10.981Z,100239.41
2022-08-05T02:00:45.342Z,100234.77
2022-08-05T02:03:31.849Z,100236.48
2022-08-05T02:06:33.407Z,100236.78
2022-08-05T02:08:59.396Z,100237.56
2022-08-05T02:11:52.357Z,100233.59
2022-08-05T02:14:35.691Z,100226.58
2022-08-05T02:18:28.019Z,100231.21
2022-08-05T02:20:14.084Z,100229.48
2022-08-05T02:22:58.596Z,100224.87
2022-08-05T02:25:50.022Z,100224.88
2022-08-05T02:28:29.188Z,100224.50
2022-08-05T02:31:22.576Z,100223.09
2022-08-05T02:33:57.409Z,100225.31
2022-08-05T02:36:31.429Z,100226.86
2022-08-05T02:39:10.589Z,100223.98
2022-08-05T02:42:01.089Z,100222.66
2022-08-05T02:44:35.343Z,100223.17
2022-08-05T02:47:09.215Z,100218.85
2022-08-05T02:49:42.826Z,100217.89
2022-08-05T02:52:29.996Z,100219.28
2022-08-05T02:55:05.489Z,100218.77
2022-08-05T02:58:11.929Z,100216.05
2022-08-05T03:00:31.627Z,100214.97
2022-08-05T03:03:10.320Z,100216.55
2022-08-05T03:06:53.941Z,100214.16
2022-08-05T03:08:32.484Z,100212.35
2022-08-05T03:11:56.943Z,100216.25
2022-08-05T03:14:02.695Z,100214.45
2022-08-05T03:16:36.048Z,100210.70
2022-08-05T03:19:16.947Z,100209.41
2022-08-05T03:21:59.174Z,100205.61
2022-08-05T03:24:30.822Z,100201.99
2022-08-05T03:27:01.874Z,100204.12
2022-08-05T03:29:45.734Z,100202.66
2022-08-05T03:32:30.685Z,100201.71
2022-08-05T03:35:00.626Z,100198.15
2022-08-05T03:37:46.192Z,100200.11
2022-08-05T03:40:24.417Z,100196.88
2022-08-05T03:43:58.662Z,100194.48
2022-08-05T03:45:59.185Z,100193.70
2022-08-05T03:48:35.404Z,100193.02
2022-08-05T03:52:37.118Z,100188.34
2022-08-05T03:55:50.266Z,100194.46
2022-08-05T03:57:54.012Z,100196.77
2022-08-05T04:00:30.708Z,100193.52
2022-08-05T04:03:06.911Z,100196.58
2022-08-05T04:05:45.615Z,100200.83
2022-08-05T04:08:34.939Z,100204.50
2022-08-05T04:11:11.521Z,100205.36
2022-08-05T04:13:50.336Z,100205.95
2022-08-05T04:16:25.102Z,100204.36
2022-08-05T04:19:00.329Z,100202.86
2022-08-05T04:22:08.506Z,100198.68
2022-08-05T04:24:24.453Z,100194.89
2022-08-05T04:26:58.745Z,100192.98
2022-08-05T04:29:35.499Z,100192.95
2022-08-05T04:32:09.073Z,100194.16
2022-08-05T04:34:42.737Z,100193.12
2022-08-05T04:37:13.552Z,100189.01
2022-08-05T04:39:44.003Z,100190.70
2022-08-05T04:42:48.008Z,100190.37
2022-08-05T04:45:23.015Z,100188.72
2022-08-05T04:48:16.438Z,100190.86
2022-08-05T04:51:03.365Z,100193.27
2022-08-05T04:53:42.033Z,100197.67
2022-08-05T04:56:34.964Z,100191.77
2022-08-05T04:59:21.449Z,100190.13
2022-08-05T05:02:06.761Z,100195.55
2022-08-05T05:04:48.074Z,100196.64
2022-08-05T05:07:29.179Z,100198.27
2022-08-05T05:10:04.920Z,100201.55
2022-08-05T05:12:36.814Z,100195.17
2022-08-05T05:15:11.292Z,100193.73
2022-08-05T05:17:55.969Z,100192.54
2022-08-05T05:20:37.311Z,100190.02
2022-08-05T05:23:08.331Z,100193.33
2022-08-05T05:25:50.510Z,100190.45
2022-08-05T05:28:21.491Z,100190.38
2022-08-05T05:30:54.272Z,100190.89
2022-08-05T05:33:26.263Z,100191.12
2022-08-05T05:36:00.230Z,100191.13
2022-08-05T05:38:30.809Z,100194.28
2022-08-05T05:41:01.854Z,100191.66
2022-08-05T05:43:56.965Z,100193.10
2022-08-05T05:46:31.778Z,100195.70
2022-08-05T05:49:25.222Z,100192.21
2022-08-05T05:51:55.842Z,100190.98
2022-08-05T05:54:35.483Z,100192.77
2022-08-05T05:57:20.502Z,100195.23
2022-08-05T05:59:52.944Z,100193.34
2022-08-05T06:02:36.753Z,100192.25
2022-08-05T06:05:16.692Z,100185.65
2022-08-05T06:07:57.947Z,100186.28
2022-08-05T06:10:37.497Z,100185.70
2022-08-05T06:13:26.436Z,100189.10
2022-08-05T06:16:29.541Z,100190.91
2022-08-05T06:19:07.352Z,100187.41
2022-08-05T06:21:42.961Z,100183.41
2022-08-05T06:24:25.699Z,100182.98
2022-08-05T06:26:59.413Z,100184.41
2022-08-05T06:29:46.346Z,100183.20
2022-08-05T06:32:28.845Z,100181.90
2022-08-05T06:35:21.886Z,100183.56
2022-08-05T06:37:59.525Z,100185.16
2022-08-05T06:40:45.153Z,100180.81
2022-08-05T06:44:33.169Z,100185.73
2022-08-05T06:47:03.828Z,100185.30
2022-08-05T06:50:01.075Z,100180.88
2022-08-05T06:52:25.057Z,100179.73
2022-08-05T06:55:10.110Z,100179.17
2022-08-05T06:58:03.422Z,100174.01
2022-08-05T07:00:56.340Z,100173.23
2022-08-05T07:03:51.118Z,100170.84
2022-08-05T07:06:29.056Z,100172.23
2022-08-05T07:09:18.642Z,100164.95
2022-08-05T07:12:49.181Z,100165.80
2022-08-05T07:16:00.903Z,100165.17
2022-08-05T07:18:40.314Z,100164.07
2022-08-05T07:22:01.133Z,100161.72
2022-08-05T07:24:28.583Z,100164.48
2022-08-05T07:27:00.075Z,100166.42
2022-08-05T07:30:25.408Z,100168.56
2022-08-05T07:32:30.789Z,100167.62
2022-08-05T07:36:02.191Z,100156.19
2022-08-05T07:37:54.609Z,100156.08
2022-08-05T07:43:33.431Z,100160.91
2022-08-05T07:46:05.960Z,100156.11
2022-08-05T07:49:05.418Z,100159.42
2022-08-05T07:51:40.648Z,100157.73
2022-08-05T07:54:19.012Z,100155.03
2022-08-05T07:57:01.582Z,100156.54
2022-08-05T07:59:52.330Z,100162.16
2022-08-05T08:02:31.219Z,100161.95
2022-08-05T08:05:27.818Z,100162.98
2022-08-05T08:08:01.569Z,100164.95
2022-08-05T08:10:34.065Z,100160.64
2022-08-05T08:13:15.258Z,100156.94
2022-08-05T08:16:35.347Z,100158.22
2022-08-05T08:18:56.424Z,100158.55
2022-08-05T08:23:03.052Z,100153.91
2022-08-05T08:26:04.620Z,100146.69
2022-08-05T08:28:59.152Z,100146.13
2022-08-05T08:31:37.881Z,100141.61
2022-08-05T08:34:14.899Z,100143.08
2022-08-05T08:36:52.501Z,100139.77
2022-08-05T08:39:26.265Z,100141.38
2022-08-05T08:41:59.746Z,100132.77
2022-08-05T08:45:20.398Z,100139.23
2022-08-05T08:48:06.178Z,100136.75
2022-08-05T08:50:52.002Z,100130.85
2022-08-05T08:53:18.425Z,100129.79
2022-08-05T08:56:03.003Z,100132.55
2022-08-05T08:58:47.536Z,100128.23
2022-08-05T09:01:23.019Z,100124.30
2022-08-05T09:03:58.965Z,100126.95
2022-08-05T09:06:32.537Z,100128.91
2022-08-05T09:09:08.576Z,100126.92
2022-08-05T09:11:51.229Z,100126.89
2022-08-05T09:14:56.769Z,100116.99
2022-08-05T09:17:43.158Z,100115.05
2022-08-05T09:20:11.723Z,100113.55
2022-08-05T09:23:19.839Z,100113.61
2022-08-05T09:26:01.997Z,100110.84
2022-08-05T09:28:35.978Z,100108.66
2022-08-05T09:31:22.320Z,100105.02
2022-08-05T09:34:05.542Z,100103.89
2022-08-05T09:36:45.871Z,100105.41
2022-08-05T09:39:39.425Z,100101.90
2022-08-05T09:46:39.217Z,100095.23
2022-08-05T09:49:40.438Z,100088.14
2022-08-05T09:52:34.986Z,100096.36
2022-08-05T09:55:56.143Z,100099.26
2022-08-05T09:57:59.768Z,100090.83
2022-08-05T10:00:30.756Z,100091.34
2022-08-05T10:03:11.345Z,100091.84
2022-08-05T10:05:42.971Z,100088.75
2022-08-05T10:08:37.571Z,100090.24
2022-08-05T10:11:06.751Z,100085.14
2022-08-05T10:13:47.435Z,100077.77
2022-08-05T10:16:37.600Z,100075.63
2022-08-05T10:19:14.109Z,100080.61
2022-08-05T10:21:49.855Z,100083.38
2022-08-05T10:24:25.012Z,100083.51
2022-08-05T10:27:00.482Z,100079.21
2022-08-05T10:30:40.987Z,100079.19
2022-08-05T10:32:52.142Z,100082.41
2022-08-05T10:35:19.435Z,100080.52
2022-08-05T10:37:49.875Z,100078.99
2022-08-05T10:40:50.370Z,100070.30
2022-08-05T10:43:49.528Z,100071.08
2022-08-05T10:46:23.788Z,100072.08
2022-08-05T10:49:01.642Z,100068.92
2022-08-05T10:52:00.760Z,100068.34
2022-08-05T10:55:05.443Z,100062.25
2022-08-05T10:57:35.386Z,100053.13
2022-08-05T11:00:20.735Z,100056.09
2022-08-05T11:03:24.581Z,100055.58
2022-08-05T11:06:15.151Z,100046.27
2022-08-05T11:09:31.877Z,100036.96
2022-08-05T11:12:41.302Z,100038.06
2022-08-05T11:15:21.363Z,100034.46
2022-08-05T11:17:59.623Z,100030.57
2022-08-05T11:20:44.051Z,100033.95
2022-08-05T11:24:05.470Z,100033.23
2022-08-05T11:26:32.525Z,100034.33
2022-08-05T11:29:13.357Z,100032.23
2022-08-05T11:31:57.500Z,100029.45
2022-08-05T11:34:47.177Z,100035.41
2022-08-05T11:38:37.098Z,100033.75
2022-08-05T11:41:03.666Z,100036.64
2022-08-05T11:44:40.517Z,100035.73
2022-08-05T11:47:14.118Z,100036.48
2022-08-05T11:50:01.719Z,100025.65
2022-08-05T11:52:34.599Z,100023.10
2022-08-05T11:55:07.750Z,100022.58
2022-08-05T11:58:09.202Z,100023.38
2022-08-05T12:00:38.248Z,100022.98
2022-08-05T12:03:28.797Z,100019.49
2022-08-05T12:06:10.825Z,100014.79
2022-08-05T12:08:54.716Z,100018.83
2022-08-05T12:11:40.452Z,100015.58
2022-08-05T12:14:11.610Z,100020.21
2022-08-05T12:16:45.417Z,100016.84
2022-08-05T12:20:26.940Z,100014.31
2022-08-05T12:22:09.706Z,100013.02
2022-08-05T12:24:52.928Z,100011.67
2022-08-05T12:27:32.964Z,100005.66
2022-08-05T12:30:10.536Z,100004.17
2022-08-05T12:32:54.157Z,100004.66
2022-08-05T12:35:39.512Z,100003.32
2022-08-05T12:38:31.582Z,99986.41
2022-08-05T12:41:03.222Z,99988.31
2022-08-05T12:44:33.653Z,99997.23
2022-08-05T12:47:05.188Z,99994.75
2022-08-05T12:50:03.113Z,99995.52
2022-08-05T12:52:42.937Z,99999.28
2022-08-05T12:55:26.566Z,99994.45
2022-08-05T12:58:50.286Z,99994.48
2022-08-05T13:02:01.311Z,99990.07
2022-08-05T13:03:48.653Z,99980.89
2022-08-05T13:06:20.227Z,99973.80
2022-08-05T13:08:51.704Z,99969.38
2022-08-05T13:11:25.409Z,99978.27
2022-08-05T13:14:20.412Z,99975.83
2022-08-05T13:17:24.939Z,99969.55
2022-08-05T13:20:20.401Z,99966.88
2022-08-05T13:22:54.497Z,99962.23
2022-08-05T13:25:52.470Z,99964.77
2022-08-05T13:28:17.236Z,99955.01
2022-08-05T13:30:51.193Z,99949.73
2022-08-05T13:34:24.325Z,99949.27
2022-08-05T13:36:14.466Z,99953.19
2022-08-05T13:38:46.019Z,99957.73
2022-08-05T13:41:21.226Z,99952.77
2022-08-05T13:43:55.558Z,99946.29
2022-08-05T13:46:50.767Z,99935.80
2022-08-05T13:49:16.953Z,99927.30
2022-08-05T13:51:47.212Z,99927.24
2022-08-05T13:54:21.013Z,99928.98
2022-08-05T13:56:54.906Z,99925.59
2022-08-05T13:59:27.089Z,99926.73
2022-08-05T14:02:00.124Z,99926.25
2022-08-05T14:04:51.823Z,99923.09
2022-08-05T14:07:59.964Z,99925.05
2022-08-05T14:10:28.668Z,99923.92
2022-08-05T14:13:03.279Z,99927.06
2022-08-05T14:16:04.817Z,99929.61
2022-08-05T14:18:25.150Z,99932.95
2022-08-05T14:20:57.259Z,99931.05
2022-08-05T14:23:36.425Z,99927.36
2022-08-05T14:26:08.241Z,99918.11
2022-08-05T14:28:57.241Z,99910.03
2022-08-05T14:32:03.917Z,99914.62
2022-08-05T14:34:23.630Z,99914.77
2022-08-05T14:36:56.608Z,99920.23
2022-08-05T14:39:28.942Z,99913.69
2022-08-05T14:42:21.389Z,99921.31
2022-08-05T14:44:50.738Z,99923.00
2022-08-05T14:48:03.670Z,99918.45
2022-08-05T14:50:19.372Z,99914.04
2022-08-05T14:52:53.630Z,99905.69
2022-08-05T14:55:39.438Z,99919.26
2022-08-05T14:58:13.779Z,99913.73
2022-08-05T15:00:58.694Z,99905.59
2022-08-05T15:03:39.307Z,99909.45
2022-08-05T15:06:14.948Z,99903.31
2022-08-05T15:08:59.822Z,99895.30
2022-08-05T15:11:52.974Z,99905.50
2022-08-05T15:14:34.525Z,99905.44
2022-08-05T15:17:09.746Z,99906.38
2022-08-05T15:20:01.046Z,99898.73
2022-08-05T15:22:33.911Z,99900.05
2022-08-05T15:25:14.109Z,99895.30
2022-08-05T15:27:52.375Z,99893.58
2022-08-05T15:30:24.000Z,99891.02
2022-08-05T15:32:55.923Z,99886.04
2022-08-05T15:35:27.360Z,99888.70
2022-08-05T15:38:08.643Z,99894.15
2022-08-05T15:41:04.440Z,99898.04
2022-08-05T15:44:36.051Z,99903.80
2022-08-05T15:47:09.463Z,99904.19
2022-08-05T15:49:58.786Z,99909.33
2022-08-05T15:52:53.424Z,99906.20
2022-08-05T15:55:25.186Z,99905.51
2022-08-05T15:58:16.750Z,99910.11
2022-08-05T16:00:56.988Z,99906.77
2022-08-05T16:03:35.512Z,99898.66
2022-08-05T16:06:13.321Z,99899.45
2022-08-05T16:08:44.808Z,99900.30
2022-08-05T16:11:16.636Z,99901.55
2022-08-05T16:13:47.285Z,99891.82
2022-08-05T16:16:25.234Z,99891.89
2022-08-05T16:18:57.347Z,99885.16
2022-08-05T16:21:59.444Z,99881.34
2022-08-05T16:24:41.782Z,99879.00
2022-08-05T16:27:10.295Z,99882.80
2022-08-05T16:29:51.121Z,99880.77
2022-08-05T16:32:28.764Z,99875.56
2022-08-05T16:35:01.723Z,99874.77
2022-08-05T16:38:15.001Z,99873.36
2022-08-05T16:40:28.802Z,99868.23
2022-08-05T16:43:02.089Z,99867.59
2022-08-05T16:46:04.124Z,99864.36
2022-08-05T16:48:25.724Z,99862.63
2022-08-05T16:51:02.132Z,99865.09
2022-08-05T16:54:04.770Z,99863.14
2022-08-05T16:56:24.354Z,99864.05
2022-08-05T16:58:53.654Z,99867.23
2022-08-05T17:01:27.750Z,99863.41
2022-08-05T17:04:18.904Z,99863.39
2022-08-05T17:06:53.398Z,99863.45
2022-08-05T17:09:23.867Z,99861.25
2022-08-05T17:11:59.214Z,99857.76
2022-08-05T17:14:37.022Z,99860.93
2022-08-05T17:17:14.229Z,99861.40
2022-08-05T17:19:47.115Z,99854.52
2022-08-05T17:22:25.919Z,99856.08
2022-08-05T17:24:58.811Z,99852.02
2022-08-05T17:27:33.654Z,99854.52
2022-08-05T17:30:12.087Z,99855.18
2022-08-05T17:32:50.178Z,99854.80
2022-08-05T17:35:19.883Z,99852.96
2022-08-05T17:38:00.703Z,99854.38
2022-08-05T17:40:36.053Z,99854.38
2022-08-05T17:43:07.848Z,99850.92
2022-08-05T17:45:43.027Z,99848.55
2022-08-05T17:48:14.362Z,99852.54
2022-08-05T17:50:47.098Z,99851.25
2022-08-05T17:53:21.686Z,99850.73
2022-08-05T17:55:53.202Z,99848.53
2022-08-05T17:58:32.243Z,99845.71
2022-08-05T18:01:02.701Z,99845.55
2022-08-05T18:03:58.326Z,99847.45
2022-08-05T18:06:31.121Z,99849.24
2022-08-05T18:09:03.571Z,99850.55
2022-08-05T18:11:33.886Z,99850.90
2022-08-05T18:14:13.278Z,99853.75
2022-08-05T18:16:51.904Z,99849.39
2022-08-05T18:19:22.885Z,99852.18
2022-08-05T18:22:08.709Z,99856.55
2022-08-05T18:24:43.677Z,99857.77
2022-08-05T18:27:18.392Z,99859.16
2022-08-05T18:29:54.601Z,99852.67
2022-08-05T18:32:28.381Z,99857.13
2022-08-05T18:35:02.586Z,99857.52
2022-08-05T18:38:00.794Z,99855.35
2022-08-05T18:41:54.958Z,99854.63
2022-08-05T18:47:05.866Z,99856.95
2022-08-05T18:50:01.290Z,99854.89
2022-08-05T18:52:38.784Z,99854.28
2022-08-05T18:55:10.629Z,99857.30
2022-08-05T18:58:03.328Z,99861.62
2022-08-05T19:01:18.174Z,99869.09
2022-08-05T19:03:55.310Z,99866.05
2022-08-05T19:06:37.264Z,99869.96
2022-08-05T19:09:18.558Z,99869.17
2022-08-05T19:12:00.231Z,99866.16
2022-08-05T19:14:53.288Z,99867.13
2022-08-05T19:17:24.362Z,99869.22
2022-08-05T19:20:05.509Z,99865.23
2022-08-05T19:23:02.122Z,99867.83
2022-08-05T19:26:31.972Z,99866.71
2022-08-05T19:29:53.418Z,99864.39
2022-08-05T19:32:48.359Z,99862.73
2022-08-05T19:35:21.712Z,99865.44
2022-08-05T19:38:05.975Z,99867.75
2022-08-05T19:40:41.132Z,99870.73
2022-08-05T19:44:31.484Z,99873.55
2022-08-05T19:47:04.909Z,99869.55
2022-08-05T19:49:43.924Z,99865.27
2022-08-05T19:52:40.300Z,99863.52
2022-08-05T19:56:14.803Z,99863.08
2022-08-05T19:58:28.462Z,99865.33
2022-08-05T20:00:56.620Z,99862.69
2022-08-05T20:03:29.269Z,99863.42
2022-08-05T20:06:16.033Z,99859.17
2022-08-05T20:09:06.212Z,99859.05
2022-08-05T20:11:48.433Z,99862.54
2022-08-05T20:14:27.323Z,99860.68
2022-08-05T20:17:00.888Z,99862.70
2022-08-05T20:19:36.270Z,99859.05
2022-08-05T20:22:13.596Z,99861.16
2022-08-05T20:24:46.379Z,99857.58
2022-08-05T20:27:16.509Z,99859.73
2022-08-05T20:29:58.581Z,99862.45
2022-08-05T20:32:45.021Z,99860.98
2022-08-05T20:35:21.242Z,99862.05
2022-08-05T20:44:16.917Z,99861.60
2022-08-05T20:53:36.641Z,99869.16
2022-08-05T20:56:09.810Z,99871.44
2022-08-05T21:00:11.141Z,99875.68
2022-08-05T21:03:34.311Z,99880.14
2022-08-05T21:06:07.192Z,99889.77
2022-08-05T21:08:57.707Z,99898.69
2022-08-05T21:12:10.491Z,99897.73
2022-08-05T21:14:19.734Z,99889.48
2022-08-05T21:16:50.705Z,99889.81
2022-08-05T21:19:20.183Z,99897.88
2022-08-05T21:21:54.317Z,99908.68
2022-08-05T21:24:26.448Z,99918.77
2022-08-05T21:26:58.633Z,99926.60
2022-08-05T21:29:33.477Z,99940.34
2022-08-05T21:32:11.947Z,99935.67
2022-08-05T21:34:55.932Z,99945.14
2022-08-05T21:37:41.013Z,99946.18
2022-08-05T21:40:32.593Z,99937.64
2022-08-05T21:43:41.651Z,99939.20
2022-08-05T21:46:21.644Z,99923.92
2022-08-05T21:48:53.031Z,99921.28
2022-08-05T21:52:22.156Z,99914.08
2022-08-05T21:54:27.974Z,99903.20
2022-08-05T21:57:30.657Z,99898.60
2022-08-05T22:00:05.337Z,99902.22
2022-08-05T22:02:50.520Z,99910.65
2022-08-05T22:05:27.370Z,99914.17
2022-08-05T22:07:59.557Z,99926.69
2022-08-05T22:10:33.755Z,99933.52
2022-08-05T22:13:08.879Z,99935.19
2022-08-05T22:16:04.937Z,99936.66
2022-08-05T22:19:01.383Z,99938.80
2022-08-05T22:21:33.872Z,99941.83
2022-08-05T22:24:40.166Z,99941.35
2022-08-05T22:28:09.743Z,99938.17
2022-08-05T22:30:24.201Z,99932.67
2022-08-05T22:32:56.748Z,99933.73
2022-08-05T22:35:48.016Z,99936.49
2022-08-05T22:38:50.024Z,99933.95
2022-08-05T22:42:09.385Z,99933.59
2022-08-05T22:45:38.804Z,99943.04
2022-08-05T22:48:22.245Z,99953.64
2022-08-05T22:51:00.188Z,99954.63
2022-08-05T22:53:58.198Z,99963.27
2022-08-05T22:56:31.643Z,99973.63
2022-08-05T22:59:43.749Z,99973.59
2022-08-05T23:02:06.249Z,99981.10
2022-08-05T23:04:51.348Z,99978.41
2022-08-05T23:07:22.501Z,99976.53
2022-08-05T23:10:01.282Z,99976.26
2022-08-05T23:12:40.251Z,99973.51
2022-08-05T23:15:17.745Z,99962.80
2022-08-05T23:18:01.757Z,99962.34
2022-08-05T23:20:38.272Z,99958.70
2022-08-05T23:23:09.798Z,99955.45
2022-08-05T23:25:51.589Z,99952.14
2022-08-05T23:28:30.815Z,99965.52
2022-08-05T23:31:16.459Z,99973.07
2022-08-05T23:34:04.982Z,99987.76
2022-08-05T23:36:56.636Z,99999.23
2022-08-05T23:39:53.876Z,99997.41
2022-08-05T23:42:29.334Z,100006.95
2022-08-05T23:45:14.372Z,100004.77
2022-08-05T23:47:49.488Z,100001.52
2022-08-05T23:50:38.545Z,100005.34
2022-08-05T23:53:22.657Z,100013.00
2022-08-05T23:55:56.643Z,100018.27
2022-08-05T23:58:39.013Z,100024.00
